sensor_id;sensor_type;location;lat;lon;timestamp;temperature;humidity
4566;DHT22;2295;51.050;14.608;2023-01-01T00:00:23;13.20;99.90
4566;DHT22;2295;51.050;14.608;2023-01-01T00:02:53;13.10;99.90
4566;DHT22;2295;51.050;14.608;2023-01-01T00:05:21;13.10;99.90
4566;DHT22;2295;51.050;14.608;2023-01-01T00:07:49;13.10;99.90
4566;DHT22;2295;51.050;14.608;2023-01-01T00:10:18;13.00;99.90
4566;DHT22;2295;51.050;14.608;2023-01-01T00:12:54;12.90;99.90
4566;DHT22;2295;51.050;14.608;2023-01-01T00:15:23;12.90;99.90
4566;DHT22;2295;51.050;14.608;2023-01-01T00:17:54;12.90;99.90
4566;DHT22;2295;51.050;14.608;2023-01-01T00:20:23;12.90;99.90
4566;DHT22;2295;51.050;14.608;2023-01-01T00:23:01;12.90;99.90
4566;DHT22;2295;51.050;14.608;2023-01-01T00:25:30;12.90;99.90
4566;DHT22;2295;51.050;14.608;2023-01-01T00:27:58;12.90;99.90
4566;DHT22;2295;51.050;14.608;2023-01-01T00:30:27;12.80;99.90
4566;DHT22;2295;51.050;14.608;2023-01-01T00:32:57;12.80;99.90
4566;DHT22;2295;51.050;14.608;2023-01-01T00:35:25;12.70;99.90
4566;DHT22;2295;51.050;14.608;2023-01-01T00:37:54;12.70;99.90
4566;DHT22;2295;51.050;14.608;2023-01-01T00:40:22;12.70;99.90
4566;DHT22;2295;51.050;14.608;2023-01-01T00:42:51;12.70;99.90
4566;DHT22;2295;51.050;14.608;2023-01-01T00:45:19;12.60;99.90
4566;DHT22;2295;51.050;14.608;2023-01-01T00:47:49;12.60;99.90
4566;DHT22;2295;51.050;14.608;2023-01-01T00:50:19;12.50;99.90
4566;DHT22;2295;51.050;14.608;2023-01-01T00:52:48;12.50;99.90
4566;DHT22;2295;51.050;14.608;2023-01-01T00:55:17;12.40;99.90
4566;DHT22;2295;51.050;14.608;2023-01-01T00:57:45;12.40;99.90
4566;DHT22;2295;51.050;14.608;2023-01-01T01:00:14;12.50;99.90
4566;DHT22;2295;51.050;14.608;2023-01-01T01:02:43;12.50;99.90
4566;DHT22;2295;51.050;14.608;2023-01-01T01:05:11;12.50;99.90
4566;DHT22;2295;51.050;14.608;2023-01-01T01:07:41;12.40;99.90
4566;DHT22;2295;51.050;14.608;2023-01-01T01:10:10;12.30;99.90
4566;DHT22;2295;51.050;14.608;2023-01-01T01:12:39;12.20;99.90
4566;DHT22;2295;51.050;14.608;2023-01-01T01:15:08;12.10;99.90
4566;DHT22;2295;51.050;14.608;2023-01-01T01:17:37;12.00;99.90
4566;DHT22;2295;51.050;14.608;2023-01-01T01:20:06;11.90;99.90
4566;DHT22;2295;51.050;14.608;2023-01-01T01:22:35;11.90;99.90
4566;DHT22;2295;51.050;14.608;2023-01-01T01:25:05;12.00;99.90
4566;DHT22;2295;51.050;14.608;2023-01-01T01:27:34;12.20;99.90
4566;DHT22;2295;51.050;14.608;2023-01-01T01:30:03;12.40;99.90
4566;DHT22;2295;51.050;14.608;2023-01-01T01:32:32;12.60;99.90
4566;DHT22;2295;51.050;14.608;2023-01-01T01:35:04;12.70;99.90
4566;DHT22;2295;51.050;14.608;2023-01-01T01:37:32;12.70;99.90
4566;DHT22;2295;51.050;14.608;2023-01-01T01:40:01;12.80;99.90
4566;DHT22;2295;51.050;14.608;2023-01-01T01:42:30;12.80;99.90
4566;DHT22;2295;51.050;14.608;2023-01-01T01:45:00;12.80;99.90
4566;DHT22;2295;51.050;14.608;2023-01-01T01:47:32;12.80;99.90
4566;DHT22;2295;51.050;14.608;2023-01-01T01:50:06;13.00;99.90
4566;DHT22;2295;51.050;14.608;2023-01-01T01:52:38;13.10;99.90
4566;DHT22;2295;51.050;14.608;2023-01-01T01:55:08;13.00;99.90
4566;DHT22;2295;51.050;14.608;2023-01-01T01:57:39;12.80;99.90
4566;DHT22;2295;51.050;14.608;2023-01-01T02:00:09;12.60;99.90
4566;DHT22;2295;51.050;14.608;2023-01-01T02:02:42;12.40;99.90
4566;DHT22;2295;51.050;14.608;2023-01-01T02:05:12;12.40;99.90
4566;DHT22;2295;51.050;14.608;2023-01-01T02:07:41;12.40;99.90
4566;DHT22;2295;51.050;14.608;2023-01-01T02:10:10;12.40;99.90
4566;DHT22;2295;51.050;14.608;2023-01-01T02:12:40;12.30;99.90
4566;DHT22;2295;51.050;14.608;2023-01-01T02:15:08;12.20;99.90
4566;DHT22;2295;51.050;14.608;2023-01-01T02:17:42;12.10;99.90
4566;DHT22;2295;51.050;14.608;2023-01-01T02:20:23;12.00;99.90
4566;DHT22;2295;51.050;14.608;2023-01-01T02:23:05;11.80;99.90
4566;DHT22;2295;51.050;14.608;2023-01-01T02:25:44;11.90;99.90
4566;DHT22;2295;51.050;14.608;2023-01-01T02:28:33;11.90;99.90
4566;DHT22;2295;51.050;14.608;2023-01-01T02:31:04;11.90;99.90
4566;DHT22;2295;51.050;14.608;2023-01-01T02:33:34;11.90;99.90
4566;DHT22;2295;51.050;14.608;2023-01-01T02:36:05;11.90;99.90
4566;DHT22;2295;51.050;14.608;2023-01-01T02:38:36;11.80;99.90
4566;DHT22;2295;51.050;14.608;2023-01-01T02:41:07;11.70;99.90
4566;DHT22;2295;51.050;14.608;2023-01-01T02:43:39;11.80;99.90
4566;DHT22;2295;51.050;14.608;2023-01-01T02:46:08;11.80;99.90
4566;DHT22;2295;51.050;14.608;2023-01-01T02:48:40;11.90;99.90
4566;DHT22;2295;51.050;14.608;2023-01-01T02:51:16;11.80;99.90
4566;DHT22;2295;51.050;14.608;2023-01-01T02:53:52;11.70;99.90
4566;DHT22;2295;51.050;14.608;2023-01-01T02:56:34;11.50;99.90
4566;DHT22;2295;51.050;14.608;2023-01-01T02:59:17;11.40;99.90
4566;DHT22;2295;51.050;14.608;2023-01-01T03:02:13;11.20;99.90
4566;DHT22;2295;51.050;14.608;2023-01-01T03:04:52;11.00;99.90
4566;DHT22;2295;51.050;14.608;2023-01-01T03:07:28;10.90;99.90
4566;DHT22;2295;51.050;14.608;2023-01-01T03:10:06;10.80;99.90
4566;DHT22;2295;51.050;14.608;2023-01-01T03:12:44;10.70;99.90
4566;DHT22;2295;51.050;14.608;2023-01-01T03:15:23;10.70;99.90
4566;DHT22;2295;51.050;14.608;2023-01-01T03:17:57;10.60;99.90
4566;DHT22;2295;51.050;14.608;2023-01-01T03:20:31;10.50;99.90
4566;DHT22;2295;51.050;14.608;2023-01-01T03:23:09;10.40;99.90
4566;DHT22;2295;51.050;14.608;2023-01-01T03:25:44;10.30;99.90
4566;DHT22;2295;51.050;14.608;2023-01-01T03:28:16;10.30;99.90
4566;DHT22;2295;51.050;14.608;2023-01-01T03:30:48;10.30;99.90
4566;DHT22;2295;51.050;14.608;2023-01-01T03:33:21;10.30;99.90
4566;DHT22;2295;51.050;14.608;2023-01-01T03:35:52;10.30;99.90
4566;DHT22;2295;51.050;14.608;2023-01-01T03:38:25;10.30;99.90
4566;DHT22;2295;51.050;14.608;2023-01-01T03:41:00;10.30;99.90
4566;DHT22;2295;51.050;14.608;2023-01-01T03:43:38;10.30;99.90
4566;DHT22;2295;51.050;14.608;2023-01-01T03:46:12;10.30;99.90
4566;DHT22;2295;51.050;14.608;2023-01-01T03:48:41;10.40;99.90
4566;DHT22;2295;51.050;14.608;2023-01-01T03:51:54;10.40;99.90
4566;DHT22;2295;51.050;14.608;2023-01-01T03:54:35;10.40;99.90
4566;DHT22;2295;51.050;14.608;2023-01-01T03:57:09;10.40;99.90
4566;DHT22;2295;51.050;14.608;2023-01-01T03:59:41;10.20;99.90
4566;DHT22;2295;51.050;14.608;2023-01-01T04:02:15;10.20;99.90
4566;DHT22;2295;51.050;14.608;2023-01-01T04:04:46;10.30;99.90
4566;DHT22;2295;51.050;14.608;2023-01-01T04:07:15;10.30;99.90
4566;DHT22;2295;51.050;14.608;2023-01-01T04:09:46;10.30;99.90
4566;DHT22;2295;51.050;14.608;2023-01-01T04:12:16;10.30;99.90
4566;DHT22;2295;51.050;14.608;2023-01-01T04:14:45;10.30;99.90
4566;DHT22;2295;51.050;14.608;2023-01-01T04:17:15;10.30;99.90
4566;DHT22;2295;51.050;14.608;2023-01-01T04:19:44;10.40;99.90
4566;DHT22;2295;51.050;14.608;2023-01-01T04:22:20;10.50;99.90
4566;DHT22;2295;51.050;14.608;2023-01-01T04:24:49;10.60;99.90
4566;DHT22;2295;51.050;14.608;2023-01-01T04:27:18;10.70;99.90
4566;DHT22;2295;51.050;14.608;2023-01-01T04:29:46;10.90;99.90
4566;DHT22;2295;51.050;14.608;2023-01-01T04:32:16;10.90;99.90
4566;DHT22;2295;51.050;14.608;2023-01-01T04:34:44;10.90;99.90
4566;DHT22;2295;51.050;14.608;2023-01-01T04:37:13;11.10;99.90
4566;DHT22;2295;51.050;14.608;2023-01-01T04:39:41;11.20;99.90
4566;DHT22;2295;51.050;14.608;2023-01-01T04:42:10;11.10;99.90
4566;DHT22;2295;51.050;14.608;2023-01-01T04:44:38;11.00;99.90
4566;DHT22;2295;51.050;14.608;2023-01-01T04:47:06;11.00;99.90
4566;DHT22;2295;51.050;14.608;2023-01-01T04:49:36;10.90;99.90
4566;DHT22;2295;51.050;14.608;2023-01-01T04:52:05;10.90;99.90
4566;DHT22;2295;51.050;14.608;2023-01-01T04:54:33;10.90;99.90
4566;DHT22;2295;51.050;14.608;2023-01-01T04:57:02;10.90;99.90
4566;DHT22;2295;51.050;14.608;2023-01-01T04:59:30;10.90;99.90
4566;DHT22;2295;51.050;14.608;2023-01-01T05:01:59;10.80;99.90
4566;DHT22;2295;51.050;14.608;2023-01-01T05:04:27;10.70;99.90
4566;DHT22;2295;51.050;14.608;2023-01-01T05:06:57;10.70;99.90
4566;DHT22;2295;51.050;14.608;2023-01-01T05:09:26;10.60;99.90
4566;DHT22;2295;51.050;14.608;2023-01-01T05:11:54;10.50;99.90
4566;DHT22;2295;51.050;14.608;2023-01-01T05:14:22;10.50;99.90
4566;DHT22;2295;51.050;14.608;2023-01-01T05:16:51;10.50;99.90
4566;DHT22;2295;51.050;14.608;2023-01-01T05:19:20;10.80;99.90
4566;DHT22;2295;51.050;14.608;2023-01-01T05:21:48;10.80;99.90
4566;DHT22;2295;51.050;14.608;2023-01-01T05:24:18;10.90;99.90
4566;DHT22;2295;51.050;14.608;2023-01-01T05:26:46;10.90;99.90
4566;DHT22;2295;51.050;14.608;2023-01-01T05:29:14;10.90;99.90
4566;DHT22;2295;51.050;14.608;2023-01-01T05:31:44;10.90;99.90
4566;DHT22;2295;51.050;14.608;2023-01-01T05:34:12;10.80;99.90
4566;DHT22;2295;51.050;14.608;2023-01-01T05:36:41;10.70;99.90
4566;DHT22;2295;51.050;14.608;2023-01-01T05:39:10;10.60;99.90
4566;DHT22;2295;51.050;14.608;2023-01-01T05:41:40;10.50;99.90
4566;DHT22;2295;51.050;14.608;2023-01-01T05:44:09;10.50;99.90
4566;DHT22;2295;51.050;14.608;2023-01-01T05:46:37;10.60;99.90
4566;DHT22;2295;51.050;14.608;2023-01-01T05:49:09;10.60;99.90
4566;DHT22;2295;51.050;14.608;2023-01-01T05:51:38;10.50;99.90
4566;DHT22;2295;51.050;14.608;2023-01-01T05:54:05;10.30;99.90
4566;DHT22;2295;51.050;14.608;2023-01-01T05:56:33;10.30;99.90
4566;DHT22;2295;51.050;14.608;2023-01-01T05:59:04;10.30;99.90
4566;DHT22;2295;51.050;14.608;2023-01-01T06:01:33;10.30;99.90
4566;DHT22;2295;51.050;14.608;2023-01-01T06:04:11;10.20;99.90
4566;DHT22;2295;51.050;14.608;2023-01-01T06:06:40;10.30;99.90
4566;DHT22;2295;51.050;14.608;2023-01-01T06:09:09;10.60;99.90
4566;DHT22;2295;51.050;14.608;2023-01-01T06:11:37;10.70;99.90
4566;DHT22;2295;51.050;14.608;2023-01-01T06:14:07;10.70;99.90
4566;DHT22;2295;51.050;14.608;2023-01-01T06:16:35;10.50;99.90
4566;DHT22;2295;51.050;14.608;2023-01-01T06:19:04;10.50;99.90
4566;DHT22;2295;51.050;14.608;2023-01-01T06:21:32;10.40;99.90
4566;DHT22;2295;51.050;14.608;2023-01-01T06:24:00;10.30;99.90
4566;DHT22;2295;51.050;14.608;2023-01-01T06:26:31;10.30;99.90
4566;DHT22;2295;51.050;14.608;2023-01-01T06:29:00;10.20;99.90
4566;DHT22;2295;51.050;14.608;2023-01-01T06:31:30;10.20;99.90
4566;DHT22;2295;51.050;14.608;2023-01-01T06:34:06;10.30;99.90
4566;DHT22;2295;51.050;14.608;2023-01-01T06:36:34;10.30;99.90
4566;DHT22;2295;51.050;14.608;2023-01-01T06:39:03;10.20;99.90
4566;DHT22;2295;51.050;14.608;2023-01-01T06:41:32;10.10;99.90
4566;DHT22;2295;51.050;14.608;2023-01-01T06:44:01;10.00;99.90
4566;DHT22;2295;51.050;14.608;2023-01-01T06:46:32;9.80;99.90
4566;DHT22;2295;51.050;14.608;2023-01-01T06:49:03;9.70;99.90
4566;DHT22;2295;51.050;14.608;2023-01-01T06:51:35;9.60;99.90
4566;DHT22;2295;51.050;14.608;2023-01-01T06:54:04;9.60;99.90
4566;DHT22;2295;51.050;14.608;2023-01-01T06:56:33;9.80;99.90
4566;DHT22;2295;51.050;14.608;2023-01-01T06:59:02;10.30;99.90
4566;DHT22;2295;51.050;14.608;2023-01-01T07:01:33;10.50;99.90
4566;DHT22;2295;51.050;14.608;2023-01-01T07:04:05;10.60;99.90
4566;DHT22;2295;51.050;14.608;2023-01-01T07:06:34;10.60;99.90
4566;DHT22;2295;51.050;14.608;2023-01-01T07:09:03;10.60;99.90
4566;DHT22;2295;51.050;14.608;2023-01-01T07:11:31;10.60;99.90
4566;DHT22;2295;51.050;14.608;2023-01-01T07:14:00;10.40;99.90
4566;DHT22;2295;51.050;14.608;2023-01-01T07:16:28;10.30;99.90
4566;DHT22;2295;51.050;14.608;2023-01-01T07:18:58;10.20;99.90
4566;DHT22;2295;51.050;14.608;2023-01-01T07:21:29;10.30;99.90
4566;DHT22;2295;51.050;14.608;2023-01-01T07:23:59;10.20;99.90
4566;DHT22;2295;51.050;14.608;2023-01-01T07:26:29;10.30;99.90
4566;DHT22;2295;51.050;14.608;2023-01-01T07:28:58;10.50;99.90
4566;DHT22;2295;51.050;14.608;2023-01-01T07:31:35;10.60;99.90
4566;DHT22;2295;51.050;14.608;2023-01-01T07:34:06;10.60;99.90
4566;DHT22;2295;51.050;14.608;2023-01-01T07:36:34;10.60;99.90
4566;DHT22;2295;51.050;14.608;2023-01-01T07:39:03;10.60;99.90
4566;DHT22;2295;51.050;14.608;2023-01-01T07:41:31;10.70;99.90
4566;DHT22;2295;51.050;14.608;2023-01-01T07:43:59;10.80;99.90
4566;DHT22;2295;51.050;14.608;2023-01-01T07:46:28;10.80;99.90
4566;DHT22;2295;51.050;14.608;2023-01-01T07:48:56;10.80;99.90
4566;DHT22;2295;51.050;14.608;2023-01-01T07:51:26;10.80;99.90
4566;DHT22;2295;51.050;14.608;2023-01-01T07:53:54;10.90;99.90
4566;DHT22;2295;51.050;14.608;2023-01-01T07:56:32;11.10;99.90
4566;DHT22;2295;51.050;14.608;2023-01-01T07:59:01;11.20;99.90
4566;DHT22;2295;51.050;14.608;2023-01-01T08:01:30;11.30;99.90
4566;DHT22;2295;51.050;14.608;2023-01-01T08:03:58;11.30;99.90
4566;DHT22;2295;51.050;14.608;2023-01-01T08:06:28;11.30;99.90
4566;DHT22;2295;51.050;14.608;2023-01-01T08:08:56;11.50;99.90
4566;DHT22;2295;51.050;14.608;2023-01-01T08:11:25;11.70;99.90
4566;DHT22;2295;51.050;14.608;2023-01-01T08:13:53;11.70;99.90
4566;DHT22;2295;51.050;14.608;2023-01-01T08:16:21;11.80;99.90
4566;DHT22;2295;51.050;14.608;2023-01-01T08:18:49;11.80;99.90
4566;DHT22;2295;51.050;14.608;2023-01-01T08:21:18;11.90;99.90
4566;DHT22;2295;51.050;14.608;2023-01-01T08:23:47;11.80;99.90
4566;DHT22;2295;51.050;14.608;2023-01-01T08:26:16;11.80;99.90
4566;DHT22;2295;51.050;14.608;2023-01-01T08:28:45;11.80;99.90
4566;DHT22;2295;51.050;14.608;2023-01-01T08:31:21;11.90;99.90
4566;DHT22;2295;51.050;14.608;2023-01-01T08:33:49;11.90;99.90
4566;DHT22;2295;51.050;14.608;2023-01-01T08:36:20;11.90;99.90
4566;DHT22;2295;51.050;14.608;2023-01-01T08:38:50;11.80;99.90
4566;DHT22;2295;51.050;14.608;2023-01-01T08:41:18;11.80;99.90
4566;DHT22;2295;51.050;14.608;2023-01-01T08:43:46;11.70;99.90
4566;DHT22;2295;51.050;14.608;2023-01-01T08:46:15;11.90;99.90
4566;DHT22;2295;51.050;14.608;2023-01-01T08:48:43;12.10;99.90
4566;DHT22;2295;51.050;14.608;2023-01-01T08:51:17;12.20;99.90
4566;DHT22;2295;51.050;14.608;2023-01-01T08:53:46;12.20;99.90
4566;DHT22;2295;51.050;14.608;2023-01-01T08:56:19;12.30;99.90
4566;DHT22;2295;51.050;14.608;2023-01-01T08:58:47;12.40;99.90
4566;DHT22;2295;51.050;14.608;2023-01-01T09:01:16;12.50;99.90
4566;DHT22;2295;51.050;14.608;2023-01-01T09:03:47;12.60;99.90
4566;DHT22;2295;51.050;14.608;2023-01-01T09:06:16;12.70;99.90
4566;DHT22;2295;51.050;14.608;2023-01-01T09:08:47;12.80;99.90
4566;DHT22;2295;51.050;14.608;2023-01-01T09:11:22;12.80;99.90
4566;DHT22;2295;51.050;14.608;2023-01-01T09:13:51;12.90;99.90
4566;DHT22;2295;51.050;14.608;2023-01-01T09:16:20;13.00;99.90
4566;DHT22;2295;51.050;14.608;2023-01-01T09:18:49;13.10;99.90
4566;DHT22;2295;51.050;14.608;2023-01-01T09:21:17;13.30;99.90
4566;DHT22;2295;51.050;14.608;2023-01-01T09:23:48;13.40;99.90
4566;DHT22;2295;51.050;14.608;2023-01-01T09:26:18;13.60;99.90
4566;DHT22;2295;51.050;14.608;2023-01-01T09:28:46;13.70;99.90
4566;DHT22;2295;51.050;14.608;2023-01-01T09:31:15;13.70;99.90
4566;DHT22;2295;51.050;14.608;2023-01-01T09:33:43;13.80;99.90
4566;DHT22;2295;51.050;14.608;2023-01-01T09:36:25;13.80;99.90
4566;DHT22;2295;51.050;14.608;2023-01-01T09:38:54;13.80;99.90
4566;DHT22;2295;51.050;14.608;2023-01-01T09:41:31;13.90;99.90
4566;DHT22;2295;51.050;14.608;2023-01-01T09:44:05;14.00;99.90
4566;DHT22;2295;51.050;14.608;2023-01-01T09:46:37;14.10;99.90
4566;DHT22;2295;51.050;14.608;2023-01-01T09:49:10;14.10;99.90
4566;DHT22;2295;51.050;14.608;2023-01-01T09:51:41;14.10;99.90
4566;DHT22;2295;51.050;14.608;2023-01-01T09:54:26;14.10;99.90
4566;DHT22;2295;51.050;14.608;2023-01-01T09:57:00;14.00;99.90
4566;DHT22;2295;51.050;14.608;2023-01-01T09:59:29;14.10;99.90
4566;DHT22;2295;51.050;14.608;2023-01-01T10:02:03;14.10;99.90
4566;DHT22;2295;51.050;14.608;2023-01-01T10:04:52;14.00;99.90
4566;DHT22;2295;51.050;14.608;2023-01-01T10:07:31;13.90;99.90
4566;DHT22;2295;51.050;14.608;2023-01-01T10:10:05;13.90;99.90
4566;DHT22;2295;51.050;14.608;2023-01-01T10:12:41;13.90;99.90
4566;DHT22;2295;51.050;14.608;2023-01-01T10:15:16;13.90;99.90
4566;DHT22;2295;51.050;14.608;2023-01-01T10:17:50;13.90;99.90
4566;DHT22;2295;51.050;14.608;2023-01-01T10:20:23;13.90;99.90
4566;DHT22;2295;51.050;14.608;2023-01-01T10:22:56;13.90;99.90
4566;DHT22;2295;51.050;14.608;2023-01-01T10:25:26;13.90;99.90
4566;DHT22;2295;51.050;14.608;2023-01-01T10:27:59;14.00;99.90
4566;DHT22;2295;51.050;14.608;2023-01-01T10:30:29;14.00;99.90
4566;DHT22;2295;51.050;14.608;2023-01-01T10:32:58;14.00;99.90
4566;DHT22;2295;51.050;14.608;2023-01-01T10:35:33;14.20;99.90
4566;DHT22;2295;51.050;14.608;2023-01-01T10:38:03;14.20;99.90
4566;DHT22;2295;51.050;14.608;2023-01-01T10:40:32;14.20;99.90
4566;DHT22;2295;51.050;14.608;2023-01-01T10:43:02;14.20;99.90
4566;DHT22;2295;51.050;14.608;2023-01-01T10:45:32;14.30;99.90
4566;DHT22;2295;51.050;14.608;2023-01-01T10:48:15;14.30;99.90
4566;DHT22;2295;51.050;14.608;2023-01-01T10:50:47;14.30;99.90
4566;DHT22;2295;51.050;14.608;2023-01-01T10:53:28;14.20;99.90
4566;DHT22;2295;51.050;14.608;2023-01-01T10:56:03;14.10;99.90
4566;DHT22;2295;51.050;14.608;2023-01-01T10:58:41;14.10;99.90
4566;DHT22;2295;51.050;14.608;2023-01-01T11:01:12;14.10;99.90
4566;DHT22;2295;51.050;14.608;2023-01-01T11:03:55;14.00;99.90
4566;DHT22;2295;51.050;14.608;2023-01-01T11:06:25;14.00;99.90
4566;DHT22;2295;51.050;14.608;2023-01-01T11:08:56;13.90;99.90
4566;DHT22;2295;51.050;14.608;2023-01-01T11:11:27;13.90;99.90
4566;DHT22;2295;51.050;14.608;2023-01-01T11:14:02;13.80;99.90
4566;DHT22;2295;51.050;14.608;2023-01-01T11:16:32;13.80;99.90
4566;DHT22;2295;51.050;14.608;2023-01-01T11:19:03;13.80;99.90
4566;DHT22;2295;51.050;14.608;2023-01-01T11:21:34;13.80;99.90
4566;DHT22;2295;51.050;14.608;2023-01-01T11:24:16;13.80;99.90
4566;DHT22;2295;51.050;14.608;2023-01-01T11:26:45;13.90;99.90
4566;DHT22;2295;51.050;14.608;2023-01-01T11:29:24;13.90;99.90
4566;DHT22;2295;51.050;14.608;2023-01-01T11:31:53;13.90;99.90
4566;DHT22;2295;51.050;14.608;2023-01-01T11:34:29;13.90;99.90
4566;DHT22;2295;51.050;14.608;2023-01-01T11:37:24;13.90;99.90
4566;DHT22;2295;51.050;14.608;2023-01-01T11:39:56;13.90;99.90
4566;DHT22;2295;51.050;14.608;2023-01-01T11:42:26;13.90;99.90
4566;DHT22;2295;51.050;14.608;2023-01-01T11:44:59;13.90;99.90
4566;DHT22;2295;51.050;14.608;2023-01-01T11:47:29;13.90;99.90
4566;DHT22;2295;51.050;14.608;2023-01-01T11:50:02;13.90;99.90
4566;DHT22;2295;51.050;14.608;2023-01-01T11:52:37;13.90;99.90
4566;DHT22;2295;51.050;14.608;2023-01-01T11:55:15;13.90;99.90
4566;DHT22;2295;51.050;14.608;2023-01-01T11:57:53;13.90;99.90
4566;DHT22;2295;51.050;14.608;2023-01-01T12:00:24;13.80;99.90
4566;DHT22;2295;51.050;14.608;2023-01-01T12:03:00;13.80;99.90
4566;DHT22;2295;51.050;14.608;2023-01-01T12:05:39;13.80;99.90
4566;DHT22;2295;51.050;14.608;2023-01-01T12:08:10;13.80;99.90
4566;DHT22;2295;51.050;14.608;2023-01-01T12:10:44;13.80;99.90
4566;DHT22;2295;51.050;14.608;2023-01-01T12:13:18;13.80;99.90
4566;DHT22;2295;51.050;14.608;2023-01-01T12:15:57;13.80;99.90
4566;DHT22;2295;51.050;14.608;2023-01-01T12:18:28;13.80;99.90
4566;DHT22;2295;51.050;14.608;2023-01-01T12:21:04;13.80;99.90
4566;DHT22;2295;51.050;14.608;2023-01-01T12:23:35;13.80;99.90
4566;DHT22;2295;51.050;14.608;2023-01-01T12:26:12;13.80;99.90
4566;DHT22;2295;51.050;14.608;2023-01-01T12:28:56;13.70;99.90
4566;DHT22;2295;51.050;14.608;2023-01-01T12:31:37;13.70;99.90
4566;DHT22;2295;51.050;14.608;2023-01-01T12:34:14;13.60;99.90
4566;DHT22;2295;51.050;14.608;2023-01-01T12:36:49;13.60;99.90
4566;DHT22;2295;51.050;14.608;2023-01-01T12:42:40;13.60;99.90
4566;DHT22;2295;51.050;14.608;2023-01-01T12:45:25;13.60;99.90
4566;DHT22;2295;51.050;14.608;2023-01-01T12:48:05;13.50;99.90
4566;DHT22;2295;51.050;14.608;2023-01-01T12:50:46;13.50;99.90
4566;DHT22;2295;51.050;14.608;2023-01-01T12:53:33;13.50;99.90
4566;DHT22;2295;51.050;14.608;2023-01-01T12:56:15;13.50;99.90
4566;DHT22;2295;51.050;14.608;2023-01-01T12:58:53;13.40;99.90
4566;DHT22;2295;51.050;14.608;2023-01-01T13:01:24;13.50;99.90
4566;DHT22;2295;51.050;14.608;2023-01-01T13:04:03;13.50;99.90
4566;DHT22;2295;51.050;14.608;2023-01-01T13:06:39;13.40;99.90
4566;DHT22;2295;51.050;14.608;2023-01-01T13:09:12;13.40;99.90
4566;DHT22;2295;51.050;14.608;2023-01-01T13:11:42;13.30;99.90
4566;DHT22;2295;51.050;14.608;2023-01-01T13:14:24;13.20;99.90
4566;DHT22;2295;51.050;14.608;2023-01-01T13:16:53;13.20;99.90
4566;DHT22;2295;51.050;14.608;2023-01-01T13:19:29;13.20;99.90
4566;DHT22;2295;51.050;14.608;2023-01-01T13:21:58;13.20;99.90
4566;DHT22;2295;51.050;14.608;2023-01-01T13:24:27;13.20;99.90
4566;DHT22;2295;51.050;14.608;2023-01-01T13:26:55;13.10;99.90
4566;DHT22;2295;51.050;14.608;2023-01-01T13:29:34;13.10;99.90
4566;DHT22;2295;51.050;14.608;2023-01-01T13:32:10;13.10;99.90
4566;DHT22;2295;51.050;14.608;2023-01-01T13:34:59;13.10;99.90
4566;DHT22;2295;51.050;14.608;2023-01-01T13:37:30;13.00;99.90
4566;DHT22;2295;51.050;14.608;2023-01-01T13:43:30;12.90;99.90
4566;DHT22;2295;51.050;14.608;2023-01-01T13:46:02;12.80;99.90
4566;DHT22;2295;51.050;14.608;2023-01-01T13:49:14;12.70;99.90
4566;DHT22;2295;51.050;14.608;2023-01-01T13:52:30;12.60;99.90
4566;DHT22;2295;51.050;14.608;2023-01-01T13:55:29;12.50;99.90
4566;DHT22;2295;51.050;14.608;2023-01-01T14:01:19;12.20;99.90
4566;DHT22;2295;51.050;14.608;2023-01-01T14:03:53;12.20;99.90
4566;DHT22;2295;51.050;14.608;2023-01-01T14:06:28;12.10;99.90
4566;DHT22;2295;51.050;14.608;2023-01-01T14:09:05;12.00;99.90
4566;DHT22;2295;51.050;14.608;2023-01-01T14:11:33;11.90;99.90
4566;DHT22;2295;51.050;14.608;2023-01-01T14:14:17;11.80;99.90
4566;DHT22;2295;51.050;14.608;2023-01-01T14:16:50;11.70;99.90
4566;DHT22;2295;51.050;14.608;2023-01-01T14:19:19;11.70;99.90
4566;DHT22;2295;51.050;14.608;2023-01-01T14:21:48;11.70;99.90
4566;DHT22;2295;51.050;14.608;2023-01-01T14:24:20;11.60;99.90
4566;DHT22;2295;51.050;14.608;2023-01-01T14:26:50;11.60;99.90
4566;DHT22;2295;51.050;14.608;2023-01-01T14:29:24;11.50;99.90
4566;DHT22;2295;51.050;14.608;2023-01-01T14:31:53;11.40;99.90
4566;DHT22;2295;51.050;14.608;2023-01-01T14:34:26;11.40;99.90
4566;DHT22;2295;51.050;14.608;2023-01-01T14:36:56;11.20;99.90
4566;DHT22;2295;51.050;14.608;2023-01-01T14:39:28;11.30;99.90
4566;DHT22;2295;51.050;14.608;2023-01-01T14:41:59;11.40;99.90
4566;DHT22;2295;51.050;14.608;2023-01-01T14:44:33;11.40;99.90
4566;DHT22;2295;51.050;14.608;2023-01-01T14:47:24;11.40;99.90
4566;DHT22;2295;51.050;14.608;2023-01-01T14:50:02;11.20;99.90
4566;DHT22;2295;51.050;14.608;2023-01-01T14:52:38;11.20;99.90
4566;DHT22;2295;51.050;14.608;2023-01-01T14:55:16;11.20;99.90
4566;DHT22;2295;51.050;14.608;2023-01-01T14:57:49;11.10;99.90
4566;DHT22;2295;51.050;14.608;2023-01-01T15:00:25;11.00;99.90
4566;DHT22;2295;51.050;14.608;2023-01-01T15:03:10;11.00;99.90
4566;DHT22;2295;51.050;14.608;2023-01-01T15:05:39;11.00;99.90
4566;DHT22;2295;51.050;14.608;2023-01-01T15:08:20;11.00;99.90
4566;DHT22;2295;51.050;14.608;2023-01-01T15:10:50;11.00;99.90
4566;DHT22;2295;51.050;14.608;2023-01-01T15:13:22;10.90;99.90
4566;DHT22;2295;51.050;14.608;2023-01-01T15:15:51;10.90;99.90
4566;DHT22;2295;51.050;14.608;2023-01-01T15:18:35;10.80;99.90
4566;DHT22;2295;51.050;14.608;2023-01-01T15:21:06;10.80;99.90
4566;DHT22;2295;51.050;14.608;2023-01-01T15:23:37;10.80;99.90
4566;DHT22;2295;51.050;14.608;2023-01-01T15:26:16;10.80;99.90
4566;DHT22;2295;51.050;14.608;2023-01-01T15:29:01;10.80;99.90
4566;DHT22;2295;51.050;14.608;2023-01-01T15:31:34;10.70;99.90
4566;DHT22;2295;51.050;14.608;2023-01-01T15:34:04;10.70;99.90
4566;DHT22;2295;51.050;14.608;2023-01-01T15:36:33;10.60;99.90
4566;DHT22;2295;51.050;14.608;2023-01-01T15:39:01;10.50;99.90
4566;DHT22;2295;51.050;14.608;2023-01-01T15:41:41;10.50;99.90
4566;DHT22;2295;51.050;14.608;2023-01-01T15:44:28;10.50;99.90
4566;DHT22;2295;51.050;14.608;2023-01-01T15:47:10;10.60;99.90
4566;DHT22;2295;51.050;14.608;2023-01-01T15:49:39;10.70;99.90
4566;DHT22;2295;51.050;14.608;2023-01-01T15:52:16;10.70;99.90
4566;DHT22;2295;51.050;14.608;2023-01-01T15:54:47;10.60;99.90
4566;DHT22;2295;51.050;14.608;2023-01-01T15:57:19;10.50;99.90
4566;DHT22;2295;51.050;14.608;2023-01-01T15:59:49;10.50;99.90
4566;DHT22;2295;51.050;14.608;2023-01-01T16:02:26;10.50;99.90
4566;DHT22;2295;51.050;14.608;2023-01-01T16:05:02;10.60;99.90
4566;DHT22;2295;51.050;14.608;2023-01-01T16:07:33;10.70;99.90
4566;DHT22;2295;51.050;14.608;2023-01-01T16:10:01;10.90;99.90
4566;DHT22;2295;51.050;14.608;2023-01-01T16:12:31;10.80;99.90
4566;DHT22;2295;51.050;14.608;2023-01-01T16:15:00;10.90;99.90
4566;DHT22;2295;51.050;14.608;2023-01-01T16:17:29;10.90;99.90
4566;DHT22;2295;51.050;14.608;2023-01-01T16:19:58;10.80;99.90
4566;DHT22;2295;51.050;14.608;2023-01-01T16:22:32;10.70;99.90
4566;DHT22;2295;51.050;14.608;2023-01-01T16:25:12;10.50;99.90
4566;DHT22;2295;51.050;14.608;2023-01-01T16:27:45;10.40;99.90
4566;DHT22;2295;51.050;14.608;2023-01-01T16:30:14;10.40;99.90